SBGR/GRU METAR and TAF weather

Enter ICAO airport designator
Station Type Date Time Source
SBGR METAR 2023/02/05 14:00 UTC NOAA

SBGR 051400Z 28008KT 9999 SCT030 26/21 Q1017


Station Type Date Time Source
SBGR Decoded METAR 2023/02/05 14:00 UTC NOAA

Guarulhos Civ / Mil , Brazil (SBGR) 23-26S 046-28W
Feb 05, 2023 - 09:00 AM EST / 2023.02.05 1400 UTC
Wind: from the W (280 degrees) at 9 MPH (8 KT):0
Visibility: greater than 7 mile(s):0
Sky conditions: partly cloudy
Temperature: 78 F (26 C)
Dew Point: 69 F (21 C)
Relative Humidity: 73%
Pressure (altimeter): 30.03 in. Hg (1017 hPa)
ob: SBGR 051400Z 28008KT 9999 SCT030 26/21 Q1017
cycle: 14

Station Type Date Time Source
SBGR TAF 2023/02/05 12:58 UTC NOAA

TAF SBGR 050730Z 0512/0618 30010KT CAVOK TN20/0524Z TX27/0617Z
BECMG 0513/0515 BKN040
BECMG 0517/0519 SCT040 FEW045TCU
TEMPO 0519/0523 TSRA SCT040 FEW045CB
BECMG 0602/0604 33005KT BKN015
BECMG 0609/0611 30010KT CAVOK
BECMG 0611/0613 SCT025
TEMPO 0615/0618 VCTS SCT030 FEW045CB
RMK PHG

Example: see airport list